Time;durP1;ratioP1;P1;durP2;ratioP2;P2;SDS_P1;SDS_P2;PMS_P1;PMS_P2;Temp;Humidity;BMP_temperature;BMP_pressure;BME280_temperature;BME280_humidity;BME280_pressure;Samples;Min_cycle;Max_cycle;Signal;HPM_P1;HPM_P2
2023/04/03 00:03:38;;;;;;;18.90;8.90;;;;;;;1.00;91.23;99068.89;437479;1248;97889;-41
2023/04/03 00:13:46;;;;;;;14.10;8.40;;;;;;;1.07;91.37;99075.63;436890;1253;109878;-41
2023/04/03 00:23:53;;;;;;;17.20;7.10;;;;;;;1.04;91.29;99079.34;436497;1248;110305;-41
2023/04/03 00:34:00;;;;;;;14.70;6.10;;;;;;;1.07;91.41;99086.05;436309;1251;97890;-41
2023/04/03 00:44:20;;;;;;;9.80;5.20;;;;;;;1.08;91.41;99083.47;436363;1247;108433;-39
2023/04/03 00:54:28;;;;;;;12.90;5.40;;;;;;;1.04;91.26;99084.77;436700;1247;97874;-40
2023/04/03 01:04:37;;;;;;;12.10;5.00;;;;;;;0.98;91.32;99090.55;437447;1250;110369;-39
2023/04/03 01:14:45;;;;;;;9.20;3.90;;;;;;;0.84;91.25;99097.61;438070;1250;108683;-40
2023/04/03 01:24:53;;;;;;;9.40;3.80;;;;;;;0.65;91.25;99104.21;437492;1247;97408;-40
2023/04/03 01:35:00;;;;;;;7.50;2.70;;;;;;;0.49;91.30;99105.10;437518;1247;107129;-40
2023/04/03 01:45:08;;;;;;;8.40;3.10;;;;;;;0.40;91.13;99112.61;437464;1250;96629;-40
2023/04/03 01:55:15;;;;;;;8.30;3.40;;;;;;;0.35;91.13;99116.72;437577;1247;109886;-41
2023/04/03 02:05:22;;;;;;;12.40;4.50;;;;;;;0.23;90.94;99122.27;437483;1250;108509;-43
2023/04/03 02:15:29;;;;;;;13.50;4.20;;;;;;;0.05;90.92;99129.92;437499;1247;97867;-40
2023/04/03 02:25:36;;;;;;;10.60;3.60;;;;;;;-0.03;90.78;99137.63;437511;1250;110269;-40
2023/04/03 02:35:52;;;;;;;10.10;3.90;;;;;;;-0.11;90.53;99140.84;437442;1250;107550;-40
2023/04/03 02:46:00;;;;;;;6.30;3.00;;;;;;;-0.17;90.44;99141.98;437437;1246;96592;-40
2023/04/03 02:56:05;;;;;;;10.90;3.90;;;;;;;-0.24;90.54;99144.69;437337;1247;108159;-40
2023/04/03 03:06:15;;;;;;;11.10;5.40;;;;;;;-0.28;90.42;99152.42;437456;1248;97880;-40
2023/04/03 03:16:22;;;;;;;9.30;5.10;;;;;;;-0.35;90.43;99156.20;437396;1250;111736;-39
2023/04/03 03:26:30;;;;;;;14.40;5.60;;;;;;;-0.48;90.35;99164.22;437551;1250;107004;-39
2023/04/03 03:36:37;;;;;;;8.10;3.20;;;;;;;-0.60;90.00;99166.52;437343;1247;97852;-39
2023/04/03 03:46:44;;;;;;;7.60;2.80;;;;;;;-0.70;89.84;99178.20;437178;1250;447398;-48
2023/04/03 03:56:52;;;;;;;9.40;3.50;;;;;;;-0.72;89.94;99181.56;437345;1247;108701;-39
2023/04/03 04:07:00;;;;;;;7.60;2.80;;;;;;;-0.75;89.93;99190.68;437355;1248;96882;-40
2023/04/03 04:17:08;;;;;;;10.20;3.30;;;;;;;-0.81;89.78;99198.34;437641;1250;107193;-39
2023/04/03 04:27:15;;;;;;;20.20;7.10;;;;;;;-0.88;89.75;99206.93;437366;1246;96626;-40
2023/04/03 04:37:22;;;;;;;15.90;7.70;;;;;;;-0.95;89.76;99215.42;437279;1250;109786;-40
2023/04/03 04:47:31;;;;;;;10.10;4.20;;;;;;;-1.02;89.58;99225.52;437454;1247;107966;-40
2023/04/03 04:57:38;;;;;;;13.10;5.40;;;;;;;-1.05;89.54;99230.98;437284;1246;97887;-41
2023/04/03 05:07:45;;;;;;;8.80;4.70;;;;;;;-1.02;89.33;99236.12;437487;1250;110162;-40
2023/04/03 05:17:53;;;;;;;19.00;7.20;;;;;;;-0.95;89.30;99238.90;437537;1246;107555;-39
2023/04/03 05:28:00;;;;;;;32.60;11.90;;;;;;;-0.97;89.25;99243.88;437475;1250;97873;-40
2023/04/03 05:38:07;;;;;;;22.10;8.90;;;;;;;-0.93;89.15;99253.59;437463;1247;110565;-41
2023/04/03 05:48:15;;;;;;;10.40;6.40;;;;;;;-0.59;89.38;99262.52;437487;1247;109339;-42
2023/04/03 05:58:22;;;;;;;9.20;4.10;;;;;;;0.46;89.15;99264.77;437431;1248;97842;-41
2023/04/03 06:08:30;;;;;;;21.40;9.10;;;;;;;0.61;88.02;99268.41;437449;1250;109867;-39
2023/04/03 06:18:37;;;;;;;12.70;6.50;;;;;;;0.16;87.49;99279.22;437374;1250;107596;-41
2023/04/03 06:28:45;;;;;;;8.80;4.90;;;;;;;0.10;87.53;99290.89;437401;1248;107517;-39
2023/04/03 06:38:52;;;;;;;15.40;5.20;;;;;;;0.36;87.61;99299.10;437343;1250;97876;-41
2023/04/03 06:48:59;;;;;;;12.70;5.20;;;;;;;0.63;87.14;99301.48;437301;1250;107202;-40
2023/04/03 06:59:08;;;;;;;8.30;4.30;;;;;;;2.19;87.22;99307.54;437387;1247;97502;-39
2023/04/03 07:09:16;;;;;;;9.30;4.70;;;;;;;2.54;85.55;99315.02;437399;1250;97928;-39
2023/04/03 07:19:24;;;;;;;10.70;3.40;;;;;;;2.94;85.03;99319.52;437449;1250;109008;-42
2023/04/03 07:29:31;;;;;;;8.30;2.60;;;;;;;3.00;81.99;99329.28;437308;1250;107321;-39
2023/04/03 07:39:39;;;;;;;10.20;2.80;;;;;;;3.62;81.69;99339.77;437446;1250;97954;-41
2023/04/03 07:49:44;;;;;;;5.50;3.50;;;;;;;3.51;79.04;99339.38;437459;1250;96632;-40
2023/04/03 07:59:52;;;;;;;7.40;2.80;;;;;;;3.70;77.46;99338.17;437521;1250;110462;-41
2023/04/03 08:09:59;;;;;;;6.00;2.80;;;;;;;3.22;74.35;99346.29;437428;1246;107490;-39
2023/04/03 08:20:08;;;;;;;7.10;2.50;;;;;;;3.59;74.18;99352.21;437420;1250;96622;-41
2023/04/03 08:30:16;;;;;;;4.10;2.80;;;;;;;3.10;70.84;99351.58;437389;1250;97940;-40
2023/04/03 08:40:21;;;;;;;6.10;2.10;;;;;;;3.24;69.46;99351.92;437518;1250;109320;-40
2023/04/03 09:00:35;;;;;;;4.90;2.20;;;;;;;3.48;66.88;99361.19;437676;1246;96631;-39
2023/04/03 09:10:43;;;;;;;3.90;2.00;;;;;;;3.67;65.86;99362.74;437523;1250;97896;-40
2023/04/03 09:20:49;;;;;;;2.80;1.50;;;;;;;3.59;65.45;99363.46;437640;1250;110635;-42
2023/04/03 09:30:57;;;;;;;4.10;1.90;;;;;;;3.47;64.92;99363.43;437524;1250;109592;-40
2023/04/03 09:41:07;;;;;;;7.90;1.90;;;;;;;4.00;62.67;99366.99;437576;1248;108426;-39
2023/04/03 09:51:18;;;;;;;3.30;1.90;;;;;;;3.96;61.26;99377.05;437797;1246;97874;-41
2023/04/03 10:01:27;;;;;;;6.70;2.80;;;;;;;4.16;60.49;99366.08;437883;1250;108731;-41
2023/04/03 10:11:35;;;;;;;5.00;2.00;;;;;;;4.20;58.54;99372.41;437496;1247;107364;-40
2023/04/03 10:21:42;;;;;;;3.70;1.50;;;;;;;4.34;58.63;99373.45;437608;1250;96631;-40
2023/04/03 10:32:00;;;;;;;5.00;2.40;;;;;;;4.64;58.13;99369.52;437589;1248;97897;-40
2023/04/03 10:42:06;;;;;;;3.50;1.80;;;;;;;4.97;59.01;99357.05;437715;1250;109917;-43
2023/04/03 10:52:25;;;;;;;8.00;2.10;;;;;;;4.72;56.15;99354.98;437529;1250;107447;-41
2023/04/03 11:02:38;;;;;;;4.60;1.60;;;;;;;4.81;53.84;99360.48;437527;1248;107601;-41
2023/04/03 11:12:49;;;;;;;2.80;1.30;;;;;;;4.69;54.24;99358.24;437650;1250;97355;-40
2023/04/03 11:33:22;;;;;;;4.70;2.00;;;;;;;4.90;53.71;99350.67;437577;1246;108553;-41
2023/04/03 11:43:31;;;;;;;4.10;1.40;;;;;;;4.67;53.96;99351.83;437496;1250;97893;-42
2023/04/03 11:53:40;;;;;;;4.10;1.70;;;;;;;4.85;53.98;99342.67;437582;1250;97863;-40
2023/04/03 12:04:09;;;;;;;7.90;2.80;;;;;;;4.56;53.85;99353.85;437522;1250;110599;-45
2023/04/03 12:24:27;;;;;;;4.60;2.20;;;;;;;4.31;51.36;99359.83;437427;1250;96619;-41
2023/04/03 12:34:42;;;;;;;4.20;2.10;;;;;;;4.31;51.14;99354.59;437502;1250;96631;-40
2023/04/03 12:44:49;;;;;;;4.80;2.30;;;;;;;4.46;51.72;99349.86;437348;1250;108804;-41
2023/04/03 13:05:08;;;;;;;12.20;2.40;;;;;;;4.46;51.60;99352.23;437529;1250;98411;-40
2023/04/03 13:15:13;;;;;;;3.80;2.10;;;;;;;4.63;50.64;99344.83;437511;1250;97775;-39
2023/04/03 13:25:23;;;;;;;4.20;2.30;;;;;;;4.15;50.34;99344.52;437476;1248;111572;-41
2023/04/03 13:35:38;;;;;;;6.80;1.90;;;;;;;4.48;51.03;99337.31;437643;1248;108709;-40
2023/04/03 13:45:55;;;;;;;7.90;2.40;;;;;;;4.53;51.54;99340.05;437649;1248;96788;-43
2023/04/03 13:56:05;;;;;;;6.80;2.50;;;;;;;4.65;51.63;99339.95;437543;1250;97877;-41
2023/04/03 14:06:16;;;;;;;4.30;2.20;;;;;;;4.12;50.87;99351.38;437802;1251;109196;-41
2023/04/03 14:16:29;;;;;;;5.70;2.00;;;;;;;4.08;50.75;99350.05;437325;1247;108202;-41
2023/04/03 14:26:36;;;;;;;6.60;1.90;;;;;;;4.12;50.45;99350.52;437568;1251;97483;-41
2023/04/03 14:36:41;;;;;;;3.70;1.80;;;;;;;3.93;51.00;99354.85;437403;1252;97957;-40
2023/04/03 14:46:48;;;;;;;3.00;1.80;;;;;;;3.88;51.66;99352.81;437548;1247;109331;-40
2023/04/03 14:57:01;;;;;;;3.90;1.50;;;;;;;3.72;51.41;99353.55;437417;1251;107655;-40
2023/04/03 15:07:10;;;;;;;5.60;1.70;;;;;;;3.40;50.69;99357.73;437578;1253;96599;-41
2023/04/03 15:17:17;;;;;;;;;;;;;;;3.40;52.05;99360.89;437488;1247;96663;-41
2023/04/03 15:27:25;;;;;;;3.70;2.00;;;;;;;3.32;52.84;99369.02;437403;1253;109830;-41
2023/04/03 15:37:33;;;;;;;7.00;4.00;;;;;;;3.20;52.67;99366.54;437420;1248;107898;-41
2023/04/03 15:47:40;;;;;;;9.30;3.40;;;;;;;3.07;52.53;99372.39;437093;1254;324536;-40
2023/04/03 15:57:48;;;;;;;2.40;1.70;;;;;;;2.93;52.70;99372.02;437379;1253;97928;-40
2023/04/03 16:07:58;;;;;;;8.40;2.60;;;;;;;2.69;52.60;99368.09;437530;1251;109607;-41
2023/04/03 16:18:06;;;;;;;8.10;4.10;;;;;;;2.63;53.48;99372.79;437567;1253;108846;-41
2023/04/03 16:28:12;;;;;;;12.30;6.20;;;;;;;2.63;54.54;99374.67;437433;1251;107373;-41
2023/04/03 16:38:21;;;;;;;23.30;9.60;;;;;;;2.53;54.81;99383.05;437506;1248;96638;-41
2023/04/03 16:48:27;;;;;;;;;;;;;;;2.41;55.16;99387.94;437346;1253;110069;-39
2023/04/03 16:58:35;;;;;;;7.40;4.70;;;;;;;2.30;55.54;99383.97;437570;1251;108515;-41
2023/04/03 17:08:43;;;;;;;11.00;4.60;;;;;;;2.22;55.54;99385.78;437378;1251;97890;-41
2023/04/03 17:18:51;;;;;;;19.80;9.30;;;;;;;2.13;55.85;99391.35;437636;1260;97896;-41
2023/04/03 17:28:58;;;;;;;14.30;8.40;;;;;;;2.06;56.28;99397.28;437398;1261;110213;-41
2023/04/03 17:39:06;;;;;;;39.30;14.30;;;;;;;2.00;56.95;99407.79;437599;1254;108630;-40
2023/04/03 17:49:15;;;;;;;29.30;13.50;;;;;;;1.94;57.63;99414.48;437359;1253;97598;-41
2023/04/03 17:59:22;;;;;;;21.40;10.70;;;;;;;1.87;58.02;99417.10;437066;1252;98039;-41
2023/04/03 18:09:33;;;;;;;14.40;6.80;;;;;;;1.76;58.47;99421.20;437434;1254;111009;-41
2023/04/03 18:19:41;;;;;;;26.90;11.30;;;;;;;1.66;58.75;99422.49;437556;1251;106948;-40
2023/04/03 18:29:52;;;;;;;16.40;7.40;;;;;;;1.58;58.93;99421.63;437492;1254;97864;-40
2023/04/03 18:40:00;;;;;;;37.00;13.00;;;;;;;1.52;59.18;99429.27;437493;1248;96641;-40
2023/04/03 18:50:08;;;;;;;29.20;11.90;;;;;;;1.48;59.37;99423.81;437495;1251;110966;-41
2023/04/03 19:00:14;;;;;;;25.80;11.60;;;;;;;1.43;60.05;99418.95;437556;1251;106624;-40
2023/04/03 19:10:21;;;;;;;25.20;11.20;;;;;;;1.37;60.21;99418.66;437426;1254;97416;-41
2023/04/03 19:20:29;;;;;;;21.40;8.70;;;;;;;1.26;60.70;99416.45;437529;1248;96649;-42
2023/04/03 19:30:37;;;;;;;26.80;10.50;;;;;;;1.10;61.07;99418.67;437577;1251;110469;-41
2023/04/03 19:40:46;;;;;;;64.90;23.00;;;;;;;1.00;61.54;99425.77;437367;1248;107429;-41
2023/04/03 19:50:53;;;;;;;22.90;10.10;;;;;;;0.92;61.88;99427.38;437358;1254;97921;-41
2023/04/03 20:01:01;;;;;;;27.40;11.30;;;;;;;0.84;61.95;99429.61;437204;1251;97510;-40
2023/04/03 20:11:08;;;;;;;21.40;9.30;;;;;;;0.68;62.48;99428.54;437405;1251;109925;-41
2023/04/03 20:21:17;;;;;;;16.70;8.20;;;;;;;0.58;62.81;99432.95;437507;1251;108519;-42
2023/04/03 20:31:26;;;;;;;20.00;9.50;;;;;;;0.56;63.09;99435.60;437540;1248;97887;-41
2023/04/03 20:41:36;;;;;;;34.10;13.00;;;;;;;0.51;63.48;99434.30;437393;1251;96567;-41
2023/04/03 21:01:50;;;;;;;32.00;11.60;;;;;;;0.38;64.22;99428.23;437298;1251;108859;-41
2023/04/03 21:12:32;;;;;;;12.30;5.80;;;;;;;0.45;64.60;99429.45;437477;1247;97941;-41
2023/04/03 21:22:42;;;;;;;22.90;7.50;;;;;;;0.50;64.72;99434.27;437604;1247;110792;-40
2023/04/03 21:32:50;;;;;;;21.90;7.80;;;;;;;0.43;65.11;99441.11;437427;1251;107832;-40
2023/04/03 21:42:57;;;;;;;14.60;6.60;;;;;;;0.34;65.39;99445.16;437481;1251;97967;-40
2023/04/03 21:53:03;;;;;;;23.20;8.00;;;;;;;0.25;65.55;99457.07;437416;1247;112593;-41
2023/04/03 22:03:12;;;;;;;15.50;5.60;;;;;;;0.17;65.89;99454.19;437427;1251;106477;-41
2023/04/03 22:13:20;;;;;;;13.40;6.30;;;;;;;0.05;65.99;99452.95;437568;1252;96597;-42
2023/04/03 22:23:27;;;;;;;16.10;5.90;;;;;;;-0.07;66.13;99450.65;437462;1247;97765;-40
2023/04/03 22:33:36;;;;;;;13.30;6.20;;;;;;;-0.16;66.32;99446.98;437361;1247;109430;-42
2023/04/03 22:43:43;;;;;;;8.10;4.20;;;;;;;-0.21;66.58;99446.66;437320;1254;108797;-41
2023/04/03 22:53:50;;;;;;;21.70;9.30;;;;;;;-0.31;66.75;99447.69;437334;1251;97883;-41
2023/04/03 23:03:58;;;;;;;16.30;7.00;;;;;;;-0.47;67.11;99436.03;437455;1248;109405;-40
2023/04/03 23:14:05;;;;;;;17.00;6.80;;;;;;;-0.66;67.36;99431.14;437320;1251;109529;-41
2023/04/03 23:34:19;;;;;;;6.90;3.70;;;;;;;-0.94;67.72;99426.07;437113;1251;97960;-41
2023/04/03 23:44:26;;;;;;;6.60;4.00;;;;;;;-1.00;67.97;99414.86;437281;1247;108491;-42
2023/04/03 23:54:33;;;;;;;14.90;5.10;;;;;;;-1.11;68.22;99406.65;437236;1247;97870;-40
